Time;durP1;ratioP1;P1;durP2;ratioP2;P2;SDS_P1;SDS_P2;PMS_P1;PMS_P2;Temp;Humidity;BMP_temperature;BMP_pressure;BME280_temperature;BME280_humidity;BME280_pressure;Samples;Min_cycle;Max_cycle;Signal;HPM_P1;HPM_P2
2023/01/03 00:01:50;;;;;;;96.70;40.97;;;;;;;-141.97;88.68;47786.25;5034571;28;20169;-85
2023/01/03 00:04:16;;;;;;;99.50;42.33;;;;;;;-141.97;88.25;47772.78;5034710;28;20397;-84
2023/01/03 00:06:47;;;;;;;114.97;47.80;;;;;;;-141.97;87.84;47903.50;5036254;28;20405;-84
2023/01/03 00:09:15;;;;;;;123.40;50.90;;;;;;;-141.97;87.56;47732.44;5051405;28;20189;-84
2023/01/03 00:14:31;;;;;;;122.70;47.83;;;;;;;-141.97;88.67;47795.88;5036945;28;20403;-84
2023/01/03 00:16:59;;;;;;;111.90;45.80;;;;;;;-141.97;89.07;47788.19;5035304;28;20871;-84
2023/01/03 00:19:28;;;;;;;110.80;45.73;;;;;;;-141.97;89.53;47807.41;5017154;28;20405;-83
2023/01/03 00:21:54;;;;;;;111.43;46.30;;;;;;;-141.97;90.56;47795.88;5016580;28;20412;-83
2023/01/03 00:24:20;;;;;;;112.27;44.00;;;;;;;-141.97;91.10;47742.03;5034392;28;21058;-85
2023/01/03 00:26:46;;;;;;;108.53;45.53;;;;;;;-141.97;91.23;47751.66;5033007;28;20166;-85
2023/01/03 00:29:12;;;;;;;113.73;42.60;;;;;;;-141.97;91.14;47843.91;5032832;28;20201;-85
2023/01/03 00:31:38;;;;;;;109.63;43.50;;;;;;;-141.97;90.39;47807.41;5034413;28;20163;-84
2023/01/03 00:34:04;;;;;;;104.43;46.10;;;;;;;-141.97;90.53;47817.00;5035051;28;20173;-84
2023/01/03 00:36:30;;;;;;;103.47;44.20;;;;;;;-141.97;90.42;47711.28;5037575;28;20469;-83
2023/01/03 00:38:55;;;;;;;110.23;43.47;;;;;;;-141.97;90.46;47745.88;5037244;28;20471;-86
2023/01/03 00:41:21;;;;;;;111.20;45.77;;;;;;;-141.97;91.04;47738.19;5038442;28;20702;-84
2023/01/03 00:43:48;;;;;;;111.90;44.77;;;;;;;-141.97;91.60;47745.88;5037308;28;20177;-83
2023/01/03 00:46:16;;;;;;;106.30;44.23;;;;;;;-141.97;91.80;47795.88;5039549;28;20520;-84
2023/01/03 00:48:42;;;;;;;115.30;45.43;;;;;;;-141.97;92.38;47849.69;5040818;28;20421;-84
2023/01/03 00:51:16;;;;;;;112.07;45.30;;;;;;;-141.97;93.46;47765.09;5036205;28;20427;-85
2023/01/03 00:53:43;;;;;;;102.93;43.50;;;;;;;-141.97;95.61;47809.31;5034632;28;20479;-84
2023/01/03 00:56:13;;;;;;;101.87;41.83;;;;;;;-141.97;96.27;47803.56;5034442;28;20503;-84
2023/01/03 00:58:39;;;;;;;101.67;42.67;;;;;;;-141.97;96.33;47761.25;5033698;28;20492;-83
2023/01/03 01:01:33;;;;;;;109.67;45.50;;;;;;;-141.97;97.69;47784.34;5033437;28;20508;-83
2023/01/03 01:04:09;;;;;;;109.00;43.30;;;;;;;-141.97;98.95;47784.34;5033809;28;20173;-83
2023/01/03 01:06:41;;;;;;;104.37;43.87;;;;;;;-141.97;100.00;47749.72;5034382;28;20408;-84
2023/01/03 01:09:10;;;;;;;100.60;42.33;;;;;;;-141.97;100.00;47757.41;5017737;28;20531;-84
2023/01/03 01:11:35;;;;;;;108.17;43.57;;;;;;;-141.97;100.00;47724.75;5020425;28;20408;-86
2023/01/03 01:14:00;;;;;;;114.30;45.70;;;;;;;-141.97;100.00;47803.56;5021671;28;20420;-84
2023/01/03 01:16:29;;;;;;;115.83;46.53;;;;;;;-141.97;100.00;47776.63;5036850;28;20162;-84
2023/01/03 01:18:55;;;;;;;114.70;46.63;;;;;;;-141.97;100.00;47795.88;5037900;28;20169;-84
2023/01/03 01:21:22;;;;;;;117.00;45.47;;;;;;;-141.97;100.00;47809.31;5038051;28;20484;-84
2023/01/03 01:23:48;;;;;;;112.83;45.57;;;;;;;-141.97;100.00;47726.66;5035043;28;20685;-84
2023/01/03 01:26:16;;;;;;;109.57;46.60;;;;;;;-141.97;100.00;47793.94;5032827;28;20417;-83
2023/01/03 01:28:42;;;;;;;112.80;44.50;;;;;;;-141.97;100.00;47799.72;5032873;28;20603;-84
2023/01/03 01:31:09;;;;;;;111.27;43.27;;;;;;;-141.97;100.00;47784.34;5032614;28;20504;-84
2023/01/03 01:33:36;;;;;;;106.80;42.77;;;;;;;-141.97;100.00;47799.72;5033707;28;20170;-84
2023/01/03 01:36:14;;;;;;;92.33;40.27;;;;;;;-141.97;100.00;47807.41;5034918;28;20800;-84
2023/01/03 01:38:40;;;;;;;95.93;37.83;;;;;;;-141.97;100.00;47818.94;5018759;28;21060;-84
2023/01/03 01:41:05;;;;;;;82.30;35.90;;;;;;;-141.97;100.00;47834.31;4995349;28;20407;-84
2023/01/03 01:46:21;;;;;;;92.90;38.80;;;;;;;-141.97;100.00;47768.94;4996507;28;20206;-84
2023/01/03 01:48:50;;;;;;;92.47;39.60;;;;;;;-141.97;100.00;47834.31;4996121;28;20438;-84
2023/01/03 01:51:17;;;;;;;97.37;40.10;;;;;;;-141.97;100.00;47745.88;4993198;28;20406;-84
2023/01/03 01:53:43;;;;;;;93.47;39.53;;;;;;;-141.97;100.00;47763.19;4993162;28;20418;-84
2023/01/03 01:56:17;;;;;;;97.13;39.93;;;;;;;-141.97;100.00;47795.88;4992946;28;20407;-83
2023/01/03 01:58:44;;;;;;;87.80;38.93;;;;;;;-141.97;100.00;47792.03;4992915;28;20175;-84
2023/01/03 02:01:14;;;;;;;106.07;42.57;;;;;;;-141.97;100.00;47818.94;4992725;28;20918;-84
2023/01/03 02:03:42;;;;;;;103.57;44.83;;;;;;;-141.97;100.00;47763.19;4991600;28;20890;-84
2023/01/03 02:06:11;;;;;;;103.13;41.90;;;;;;;-141.97;100.00;47672.84;4992964;28;20804;-84
2023/01/03 02:08:36;;;;;;;106.00;41.10;;;;;;;-141.97;100.00;47817.00;4992744;28;20410;-84
2023/01/03 02:11:08;;;;;;;101.03;41.17;;;;;;;-141.97;100.00;47801.63;4992287;28;20802;-84
2023/01/03 02:14:03;;;;;;;94.40;40.80;;;;;;;-141.97;100.00;47793.94;4992490;28;20179;-84
2023/01/03 02:16:53;;;;;;;90.87;39.70;;;;;;;-141.97;100.00;47811.25;4951402;28;20508;-84
2023/01/03 02:20:12;;;;;;;97.03;41.03;;;;;;;-141.97;100.00;47832.38;4951483;29;20408;-84
2023/01/03 02:23:02;;;;;;;89.33;38.63;;;;;;;-141.97;100.00;47788.19;4932720;29;20479;-84
2023/01/03 02:25:48;;;;;;;86.53;38.23;;;;;;;-141.97;100.00;47820.84;4932472;29;20813;-84
2023/01/03 02:28:38;;;;;;;90.67;38.97;;;;;;;-141.97;100.00;47780.47;4932272;29;20865;-84
2023/01/03 02:31:28;;;;;;;91.50;39.83;;;;;;;-141.97;100.00;47768.94;4932208;29;20473;-84
2023/01/03 02:34:02;;;;;;;89.03;37.50;;;;;;;-141.97;100.00;47772.78;4932266;29;20429;-84
2023/01/03 02:36:46;;;;;;;89.33;38.37;;;;;;;-141.97;100.00;47815.09;4932107;29;20418;-84
2023/01/03 02:39:18;;;;;;;95.37;38.33;;;;;;;-141.97;100.00;47795.88;4932190;29;20473;-84
2023/01/03 02:41:44;;;;;;;91.47;39.17;;;;;;;-141.97;100.00;47799.72;4932231;29;20433;-84
2023/01/03 02:44:16;;;;;;;88.30;38.20;;;;;;;-141.97;100.00;47803.56;4936903;29;20425;-84
2023/01/03 02:46:47;;;;;;;92.53;38.30;;;;;;;-141.97;100.00;47809.31;4938840;29;20441;-84
2023/01/03 02:49:29;;;;;;;85.13;38.33;;;;;;;-141.97;100.00;47811.25;4931913;29;20563;-84
2023/01/03 02:52:01;;;;;;;87.30;38.07;;;;;;;-141.97;100.00;47805.47;4932005;29;20424;-84
2023/01/03 02:54:33;;;;;;;87.50;38.07;;;;;;;-141.97;100.00;47801.63;4966249;28;20416;-84
2023/01/03 02:57:05;;;;;;;83.93;36.23;;;;;;;-141.97;100.00;47868.91;4986828;28;20460;-84
2023/01/03 02:59:43;;;;;;;83.67;35.73;;;;;;;-141.97;100.00;47767.03;4991993;28;20446;-83
2023/01/03 03:02:10;;;;;;;84.53;36.47;;;;;;;-141.97;100.00;47749.72;4992021;28;20427;-84
2023/01/03 03:04:38;;;;;;;87.87;36.53;;;;;;;-141.97;100.00;47811.25;4999194;28;20414;-84
2023/01/03 03:07:12;;;;;;;84.77;37.53;;;;;;;-141.97;100.00;47784.34;4996368;28;20435;-84
2023/01/03 03:13:11;;;;;;;100.37;39.83;;;;;;;-141.97;100.00;47799.72;4991856;28;20450;-83
2023/01/03 03:15:14;;;;;;;94.90;38.20;;;;;;;-141.97;100.00;47761.25;4991813;28;20421;-83
2023/01/03 03:17:43;;;;;;;76.90;34.07;;;;;;;-141.97;100.00;47761.25;4991929;28;20399;-84
2023/01/03 03:26:11;;;;;;;71.70;32.40;;;;;;;-141.97;100.00;47792.03;4991600;28;20481;-84
2023/01/03 03:28:42;;;;;;;72.97;31.83;;;;;;;-141.97;100.00;47811.25;4992739;28;20407;-84
2023/01/03 03:31:21;;;;;;;68.37;30.93;;;;;;;-141.97;100.00;47765.09;4994216;28;20418;-84
2023/01/03 03:33:57;;;;;;;74.20;33.30;;;;;;;-141.97;100.00;47799.72;4994049;28;20418;-84
2023/01/03 03:36:27;;;;;;;82.23;33.10;;;;;;;-141.97;100.00;47772.78;4995528;28;20505;-85
2023/01/03 03:38:52;;;;;;;78.57;33.80;;;;;;;-141.97;100.00;47793.94;5015710;28;20472;-84
2023/01/03 03:47:23;;;;;;;76.43;33.73;;;;;;;-141.97;100.00;47811.25;5034818;28;20395;-84
2023/01/03 03:49:51;;;;;;;73.63;32.40;;;;;;;-141.97;100.00;47765.09;5034608;28;20456;-84
2023/01/03 03:52:23;;;;;;;78.67;32.70;;;;;;;-141.97;100.00;47788.19;5034824;28;20409;-84
2023/01/03 03:54:55;;;;;;;77.43;33.43;;;;;;;-141.97;100.00;47857.38;5039120;28;20782;-84
2023/01/03 03:57:33;;;;;;;69.37;31.50;;;;;;;-141.97;100.00;47795.88;5043671;28;20409;-84
2023/01/03 04:00:08;;;;;;;73.93;32.50;;;;;;;-141.97;100.00;47784.34;5018272;28;20474;-84
2023/01/03 04:02:35;;;;;;;72.23;32.13;;;;;;;-141.97;100.00;47676.69;5016990;28;20482;-84
2023/01/03 04:05:06;;;;;;;67.63;32.50;;;;;;;-141.97;100.00;47811.25;5035097;28;20404;-83
2023/01/03 04:07:33;;;;;;;67.37;32.33;;;;;;;-141.97;100.00;47770.88;5036925;28;20411;-83
2023/01/03 04:09:58;;;;;;;63.70;29.97;;;;;;;-141.97;100.00;47792.03;5016686;28;20984;-85
2023/01/03 04:12:24;;;;;;;63.53;30.73;;;;;;;-141.97;100.00;47840.06;5034464;28;20439;-84
2023/01/03 04:14:49;;;;;;;74.67;31.67;;;;;;;-141.97;100.00;47809.31;5034502;28;20529;-83
2023/01/03 04:17:14;;;;;;;91.43;40.10;;;;;;;-141.97;100.00;47834.31;5034405;28;20166;-83
2023/01/03 04:19:40;;;;;;;95.63;39.67;;;;;;;-141.97;100.00;47807.41;5034069;28;20165;-83
2023/01/03 04:22:05;;;;;;;110.00;49.10;;;;;;;-141.97;100.00;47820.84;5034047;28;20212;-83
2023/01/03 04:24:30;;;;;;;91.27;42.27;;;;;;;-141.97;100.00;47767.03;5034098;28;20690;-83
2023/01/03 04:26:56;;;;;;;83.77;33.50;;;;;;;-141.97;100.00;47740.13;5033878;28;20174;-84
2023/01/03 04:29:21;;;;;;;75.80;35.27;;;;;;;-141.97;100.00;47788.19;5033810;28;20189;-84
2023/01/03 04:31:47;;;;;;;83.70;35.07;;;;;;;-141.97;100.00;47742.03;5034380;28;20162;-84
2023/01/03 04:34:12;;;;;;;150.10;68.90;;;;;;;-141.97;100.00;47705.53;5034102;28;20166;-84
2023/01/03 04:36:37;;;;;;;176.10;74.33;;;;;;;-141.97;100.00;47707.44;5033359;28;20174;-84
2023/01/03 04:39:03;;;;;;;285.23;108.73;;;;;;;-141.97;100.00;47772.78;5033687;28;20712;-84
2023/01/03 04:41:28;;;;;;;418.20;183.20;;;;;;;-141.97;100.00;47743.97;5032371;28;20182;-84
2023/01/03 04:44:03;;;;;;;451.20;170.23;;;;;;;-141.97;100.00;47801.63;5016362;28;20280;-85
2023/01/03 04:46:37;;;;;;;222.33;84.03;;;;;;;-141.97;100.00;47849.69;5033665;28;20166;-84
2023/01/03 04:49:05;;;;;;;290.23;105.97;;;;;;;-141.97;100.00;47793.94;5033457;28;20433;-84
2023/01/03 04:51:31;;;;;;;263.13;97.77;;;;;;;-141.97;100.00;47817.00;5033491;28;20401;-84
2023/01/03 04:53:56;;;;;;;204.53;81.77;;;;;;;-141.97;100.00;47767.03;5033462;28;20404;-84
2023/01/03 04:56:24;;;;;;;176.03;75.60;;;;;;;-141.97;100.00;47780.47;5033651;28;20484;-84
2023/01/03 04:58:49;;;;;;;149.10;61.03;;;;;;;-141.97;100.00;47826.63;5033549;28;20166;-84
2023/01/03 05:01:14;;;;;;;137.67;57.77;;;;;;;-141.97;100.00;47715.13;5015522;28;20408;-84
2023/01/03 05:03:40;;;;;;;105.27;44.27;;;;;;;-141.97;100.00;47793.94;5033107;28;20249;-84
2023/01/03 05:06:07;;;;;;;112.13;47.17;;;;;;;-141.97;100.00;47788.19;5033158;28;20611;-84
2023/01/03 05:08:34;;;;;;;141.53;55.43;;;;;;;-141.97;100.00;47815.09;5033314;28;20228;-84
2023/01/03 05:11:00;;;;;;;485.73;229.93;;;;;;;-141.97;100.00;47807.41;5033499;28;20543;-84
2023/01/03 05:13:25;;;;;;;405.30;154.07;;;;;;;-141.97;100.00;47757.41;5032978;28;20504;-84
2023/01/03 05:15:51;;;;;;;309.00;117.57;;;;;;;-141.97;100.00;47813.16;5033388;28;20161;-84
2023/01/03 05:18:16;;;;;;;182.90;76.43;;;;;;;-141.97;100.00;47855.44;5033196;28;20185;-84
2023/01/03 05:26:16;;;;;;;83.30;39.70;;;;;;;-141.97;100.00;47797.78;5032966;28;20493;-84
2023/01/03 05:28:43;;;;;;;93.53;43.97;;;;;;;-141.97;100.00;47822.78;5032957;28;20763;-85
2023/01/03 05:31:09;;;;;;;93.57;41.87;;;;;;;-141.97;100.00;47795.88;5031501;28;20445;-86
2023/01/03 05:33:37;;;;;;;73.43;34.73;;;;;;;-141.97;100.00;47778.56;5031627;28;20490;-85
2023/01/03 05:36:04;;;;;;;120.17;54.77;;;;;;;-141.97;100.00;47745.88;5015058;28;20223;-85
2023/01/03 05:38:29;;;;;;;202.70;91.80;;;;;;;-141.97;100.00;47749.72;5032709;28;20468;-84
2023/01/03 05:40:54;;;;;;;186.03;77.20;;;;;;;-141.97;100.00;47761.25;5033131;28;20467;-83
2023/01/03 05:43:20;;;;;;;80.03;36.53;;;;;;;-141.97;100.00;47811.25;5049013;28;20177;-84
2023/01/03 05:45:50;;;;;;;76.93;33.43;;;;;;;-141.97;100.00;47818.94;5052705;28;20161;-84
2023/01/03 05:48:15;;;;;;;82.63;34.53;;;;;;;-141.97;100.00;47815.09;5052408;28;20161;-84
2023/01/03 05:50:40;;;;;;;75.00;32.90;;;;;;;-141.97;100.00;47795.88;5052593;28;20531;-85
2023/01/03 05:53:06;;;;;;;83.97;34.23;;;;;;;-141.97;100.00;47826.63;5050808;28;20201;-84
2023/01/03 05:55:31;;;;;;;73.17;32.60;;;;;;;-141.97;100.00;47813.16;5052517;28;20177;-85
2023/01/03 05:57:56;;;;;;;81.23;32.33;;;;;;;-141.97;100.00;47834.31;5052570;28;20630;-85
2023/01/03 06:00:22;;;;;;;77.53;29.07;;;;;;;-141.97;100.00;47776.63;5051225;28;20185;-85
2023/01/03 06:02:47;;;;;;;98.73;38.80;;;;;;;-141.97;100.00;47830.47;5052063;28;20188;-84
2023/01/03 06:05:13;;;;;;;81.67;33.90;;;;;;;-141.97;100.00;47811.25;5051842;28;20829;-84
2023/01/03 06:07:38;;;;;;;87.97;34.63;;;;;;;-141.97;100.00;47849.69;5051807;28;20169;-84
2023/01/03 06:10:05;;;;;;;85.87;31.87;;;;;;;-141.97;100.00;47751.66;5050469;28;20197;-84
2023/01/03 06:12:30;;;;;;;77.67;32.23;;;;;;;-141.97;100.00;47772.78;5051835;28;20260;-84
2023/01/03 06:14:56;;;;;;;95.63;39.00;;;;;;;-141.97;100.00;47772.78;5052205;28;20434;-84
2023/01/03 06:20:06;;;;;;;252.03;94.47;;;;;;;-141.97;100.00;47757.41;5051914;28;20184;-84
2023/01/03 06:22:31;;;;;;;213.00;82.83;;;;;;;-141.97;100.00;47761.25;5052178;28;20404;-84
2023/01/03 06:24:57;;;;;;;159.33;60.17;;;;;;;-141.97;100.00;47767.03;5052187;28;20414;-84
2023/01/03 06:27:22;;;;;;;107.57;46.70;;;;;;;-141.97;100.00;47703.59;5052063;28;20253;-84
2023/01/03 06:29:48;;;;;;;84.67;36.10;;;;;;;-141.97;100.00;47747.81;5059817;28;20610;-82
2023/01/03 06:32:13;;;;;;;80.27;34.13;;;;;;;-141.97;100.00;47715.13;5038222;28;20200;-83
2023/01/03 06:34:38;;;;;;;85.07;35.63;;;;;;;-141.97;100.00;47799.72;5052743;28;20674;-84
2023/01/03 06:37:04;;;;;;;117.70;45.97;;;;;;;-141.97;100.00;47801.63;5051889;28;20178;-84
2023/01/03 06:39:29;;;;;;;93.83;39.90;;;;;;;-141.97;100.00;47768.94;5054507;28;20266;-83
2023/01/03 06:41:55;;;;;;;90.00;38.43;;;;;;;-141.97;97.50;47757.41;5053275;28;20169;-84
2023/01/03 06:44:20;;;;;;;87.40;39.27;;;;;;;-141.97;90.18;47749.72;5051900;28;20161;-84
2023/01/03 06:54:59;;;;;;;92.87;40.47;;;;;;;-141.97;87.32;47801.63;5051823;28;20442;-81
2023/01/03 06:57:25;;;;;;;80.00;31.43;;;;;;;-141.97;87.87;47815.09;5049915;28;20420;-82
2023/01/03 06:59:50;;;;;;;74.93;32.50;;;;;;;-141.97;88.28;47792.03;5033384;28;20173;-81
2023/01/03 07:02:16;;;;;;;80.60;33.17;;;;;;;-141.97;88.81;47755.50;5051364;28;20196;-82
2023/01/03 07:04:41;;;;;;;85.83;36.80;;;;;;;-141.97;89.00;47790.09;5050748;28;20164;-81
2023/01/03 07:07:07;;;;;;;88.50;38.07;;;;;;;-141.97;87.38;47807.41;5051391;28;20195;-81
2023/01/03 07:09:32;;;;;;;217.33;88.20;;;;;;;-141.97;75.24;47836.22;5051371;28;20576;-81
2023/01/03 07:13:57;;;;;;;139.53;55.30;;;;;;;-141.97;69.44;47753.56;5051887;28;20177;-80
2023/01/03 07:14:43;;;;;;;96.00;40.57;;;;;;;-141.97;65.04;47815.09;5051672;28;20184;-82
2023/01/03 07:17:08;;;;;;;84.67;37.80;;;;;;;-141.97;61.62;47818.94;5051624;28;20408;-82
2023/01/03 07:19:33;;;;;;;86.93;37.37;;;;;;;-141.97;58.60;47799.72;5051324;28;20555;-81
2023/01/03 07:21:59;;;;;;;83.33;40.20;;;;;;;-141.97;56.88;47811.25;5051049;28;20214;-82
2023/01/03 07:24:24;;;;;;;77.97;35.83;;;;;;;-141.97;56.80;47759.34;5051050;28;20170;-81
2023/01/03 07:26:49;;;;;;;67.50;33.23;;;;;;;-141.97;55.73;47761.25;5051118;28;20227;-81
2023/01/03 07:29:15;;;;;;;60.33;32.07;;;;;;;-141.97;54.31;47786.25;5052327;28;20188;-81
2023/01/03 07:31:40;;;;;;;85.97;44.80;;;;;;;-141.97;55.78;47788.19;5055442;28;20173;-82
2023/01/03 07:34:07;;;;;;;78.23;37.80;;;;;;;-141.97;61.94;47818.94;5076481;28;20150;-81
2023/01/03 07:36:32;;;;;;;63.40;31.07;;;;;;;-141.97;67.08;47784.34;5067288;28;20224;-82
2023/01/03 07:38:57;;;;;;;103.77;43.60;;;;;;;-141.97;70.15;47759.34;5058761;28;20721;-82
2023/01/03 07:43:35;;;;;;;92.23;43.73;;;;;;;-141.97;71.36;47795.88;5059534;28;20176;-81
2023/01/03 07:44:08;;;;;;;114.10;47.97;;;;;;;-141.97;72.38;47740.13;5058309;28;20169;-81
2023/01/03 07:46:34;;;;;;;105.23;47.27;;;;;;;-141.97;72.95;47780.47;5038102;28;20474;-81
2023/01/03 07:49:01;;;;;;;118.43;53.50;;;;;;;-141.97;74.41;47740.13;5052283;28;20165;-81
2023/01/03 07:51:27;;;;;;;110.37;51.67;;;;;;;-141.97;74.61;47788.19;5052138;28;20153;-81
2023/01/03 07:53:54;;;;;;;78.43;39.17;;;;;;;-141.97;73.91;47843.91;5050747;28;20957;-81
2023/01/03 07:56:21;;;;;;;143.67;59.03;;;;;;;-141.97;73.83;47790.09;5050877;28;20457;-82
2023/01/03 07:58:47;;;;;;;120.77;55.33;;;;;;;-141.97;73.70;47792.03;5050470;28;20410;-81
2023/01/03 08:01:15;;;;;;;114.33;46.00;;;;;;;-141.97;73.07;47780.47;5050749;28;20249;-82
2023/01/03 08:03:41;;;;;;;69.60;33.60;;;;;;;-141.97;72.64;47768.94;5050907;28;20166;-80
2023/01/03 08:06:09;;;;;;;76.77;37.00;;;;;;;-141.97;72.26;47770.88;5052920;28;20197;-81
2023/01/03 08:08:36;;;;;;;98.93;45.10;;;;;;;-141.97;72.50;47788.19;5036043;28;20260;-81
2023/01/03 08:13:46;;;;;;;78.33;39.03;;;;;;;-141.97;71.15;47790.09;5061886;28;20272;-82
2023/01/03 08:16:14;;;;;;;70.57;36.50;;;;;;;-141.97;70.47;47880.44;5060987;28;20169;-82
2023/01/03 08:18:41;;;;;;;89.97;46.27;;;;;;;-141.97;70.15;47815.09;5060378;28;20218;-81
2023/01/03 08:21:08;;;;;;;85.87;44.17;;;;;;;-141.97;69.53;47813.16;5033413;28;20171;-81
2023/01/03 08:23:34;;;;;;;82.77;41.23;;;;;;;-141.97;68.49;47711.28;5015356;28;20217;-82
2023/01/03 08:26:05;;;;;;;82.10;42.10;;;;;;;-141.97;67.91;47776.63;5014887;28;20163;-82
2023/01/03 08:28:31;;;;;;;75.10;37.87;;;;;;;-141.97;66.94;47822.78;5014398;28;20170;-82
2023/01/03 08:30:58;;;;;;;75.97;39.10;;;;;;;-141.97;66.27;47786.25;5014453;28;20226;-82
2023/01/03 08:33:27;;;;;;;60.37;32.00;;;;;;;-141.97;66.44;47784.34;5014532;28;20258;-81
2023/01/03 08:35:58;;;;;;;79.33;40.50;;;;;;;-141.97;65.41;47780.47;5014771;28;20159;-81
2023/01/03 08:38:29;;;;;;;75.07;37.50;;;;;;;-141.97;65.19;47757.41;5014153;28;20221;-81
2023/01/03 08:40:55;;;;;;;99.37;45.23;;;;;;;-141.97;64.27;47797.78;5014429;28;20578;-81
2023/01/03 08:43:21;;;;;;;102.80;48.70;;;;;;;-141.97;64.34;47768.94;5014089;28;20175;-82
2023/01/03 08:45:47;;;;;;;127.10;61.33;;;;;;;-141.97;63.68;47765.09;5013885;28;20178;-82
2023/01/03 08:48:14;;;;;;;154.43;75.17;;;;;;;-141.97;63.38;47792.03;5014451;28;20666;-81
2023/01/03 08:50:40;;;;;;;121.60;60.50;;;;;;;-141.97;62.59;47793.94;5014285;28;20298;-81
2023/01/03 08:53:06;;;;;;;123.43;60.50;;;;;;;-141.97;62.69;47772.78;5029963;28;20630;-80
2023/01/03 08:55:33;;;;;;;142.83;73.20;;;;;;;-141.97;62.42;47757.41;5033984;28;20223;-80
2023/01/03 08:57:59;;;;;;;123.97;63.43;;;;;;;-141.97;61.70;47745.88;5035756;28;20170;-81
2023/01/03 09:00:25;;;;;;;121.67;59.63;;;;;;;-141.97;61.70;47763.19;5034671;28;20178;-82
2023/01/03 09:02:50;;;;;;;79.90;44.30;;;;;;;-141.97;61.40;47765.09;5033548;28;20167;-83
2023/01/03 09:05:16;;;;;;;80.07;42.10;;;;;;;-141.97;60.95;47751.66;5033938;28;20594;-84
2023/01/03 09:07:42;;;;;;;108.57;50.40;;;;;;;-141.97;60.41;47788.19;5033967;28;20200;-84
2023/01/03 09:10:07;;;;;;;115.80;53.03;;;;;;;-141.97;60.92;47776.63;5033713;28;20484;-84
2023/01/03 09:12:33;;;;;;;119.40;53.03;;;;;;;-141.97;60.99;47726.66;5034884;28;20216;-85
2023/01/03 09:14:58;;;;;;;71.93;38.70;;;;;;;-141.97;60.38;47732.44;5033742;28;20220;-83
2023/01/03 09:17:24;;;;;;;95.87;45.83;;;;;;;-141.97;60.36;47847.75;5033449;28;20177;-83
2023/01/03 09:19:49;;;;;;;76.37;38.30;;;;;;;-141.97;59.74;47853.53;5033891;28;20161;-83
2023/01/03 09:22:14;;;;;;;72.77;36.57;;;;;;;-141.97;59.67;47830.47;5035761;28;20224;-83
2023/01/03 09:24:40;;;;;;;69.03;35.03;;;;;;;-141.97;59.29;47726.66;5016524;28;20178;-83
2023/01/03 09:27:05;;;;;;;63.53;34.70;;;;;;;-141.97;58.50;47753.56;5032337;28;20169;-83
2023/01/03 09:29:31;;;;;;;82.50;43.83;;;;;;;-141.97;58.47;47669.00;5033061;28;20204;-83
2023/01/03 09:31:56;;;;;;;75.93;41.53;;;;;;;-141.97;58.02;47761.25;5032898;28;20170;-83
2023/01/03 09:34:22;;;;;;;135.40;64.13;;;;;;;-141.97;57.90;47776.63;5033048;28;20249;-83
2023/01/03 09:36:47;;;;;;;89.80;44.60;;;;;;;-141.97;57.95;47770.88;5032832;28;20171;-84
2023/01/03 09:39:13;;;;;;;63.00;37.70;;;;;;;-141.97;56.94;47838.16;5032442;28;20217;-84
2023/01/03 09:41:39;;;;;;;66.87;37.73;;;;;;;-141.97;56.50;47745.88;5031687;28;20208;-83
2023/01/03 09:44:06;;;;;;;78.77;41.60;;;;;;;-141.97;56.39;47780.47;5015104;28;20173;-84
2023/01/03 09:46:34;;;;;;;106.17;53.90;;;;;;;-141.97;56.08;47792.03;5033049;28;20154;-83
2023/01/03 09:49:01;;;;;;;94.50;46.23;;;;;;;-141.97;56.23;47817.00;5032591;28;20158;-84
2023/01/03 10:06:15;;;;;;;66.03;35.07;;;;;;;-141.97;54.77;47736.28;5032783;28;20168;-83
2023/01/03 10:08:58;;;;;;;62.90;34.33;;;;;;;-141.97;53.89;47761.25;5026263;28;20654;-83
2023/01/03 10:11:31;;;;;;;58.87;33.40;;;;;;;-141.97;53.22;47759.34;5026634;28;20586;-84
2023/01/03 10:14:18;;;;;;;47.03;28.40;;;;;;;-141.97;51.85;47740.13;5012415;28;20166;-83
2023/01/03 10:16:56;;;;;;;48.33;27.57;;;;;;;-141.97;51.82;47749.72;5012192;28;20158;-83
2023/01/03 10:19:34;;;;;;;51.57;30.03;;;;;;;-141.97;51.69;47768.94;5012352;28;20612;-82
2023/01/03 10:22:21;;;;;;;54.23;29.93;;;;;;;-141.97;51.37;47761.25;5012081;28;20646;-80
2023/01/03 10:25:01;;;;;;;56.23;31.43;;;;;;;-141.97;51.24;47767.03;5012148;28;20163;-82
2023/01/03 10:27:28;;;;;;;59.37;31.87;;;;;;;-141.97;50.90;47765.09;5012386;28;20650;-82
2023/01/03 10:30:01;;;;;;;54.87;32.50;;;;;;;-141.97;49.97;47713.22;5012145;28;20194;-82
2023/01/03 10:33:04;;;;;;;59.30;31.83;;;;;;;-141.97;49.43;47711.28;5012115;28;20213;-83
2023/01/03 10:35:32;;;;;;;55.70;31.83;;;;;;;-141.97;48.75;47747.81;4954791;28;20307;-81
2023/01/03 10:37:58;;;;;;;59.77;31.07;;;;;;;-141.97;48.17;47705.53;4970450;28;20240;-81
2023/01/03 10:40:38;;;;;;;61.03;34.07;;;;;;;-141.97;47.61;47730.50;4971580;28;20604;-82
2023/01/03 10:43:32;;;;;;;61.00;33.83;;;;;;;-141.97;47.50;47749.72;4967905;28;20588;-82
2023/01/03 10:46:20;;;;;;;62.00;35.07;;;;;;;-141.97;47.67;47661.31;4915493;29;20186;-82
2023/01/03 10:48:48;;;;;;;54.33;31.37;;;;;;;-141.97;46.91;47743.97;4913739;29;20186;-82
2023/01/03 10:51:31;;;;;;;52.37;31.60;;;;;;;-141.97;46.91;47747.81;4913195;29;20334;-82
2023/01/03 10:53:59;;;;;;;53.50;31.17;;;;;;;-141.97;46.67;47707.44;4913302;29;20182;-82
2023/01/03 10:56:29;;;;;;;51.37;30.77;;;;;;;-141.97;46.80;47755.50;4913368;29;20250;-83
2023/01/03 10:59:11;;;;;;;55.90;32.80;;;;;;;-141.97;46.39;47730.50;4913798;29;20170;-82
2023/01/03 11:01:37;;;;;;;52.77;32.93;;;;;;;-141.97;46.30;47697.84;4913661;29;20273;-82
2023/01/03 11:04:18;;;;;;;48.63;30.70;;;;;;;-141.97;45.45;47767.03;4913611;29;20717;-82
2023/01/03 11:07:02;;;;;;;54.83;31.97;;;;;;;-141.97;45.65;47676.69;4913584;29;20201;-82
2023/01/03 11:09:41;;;;;;;53.37;31.87;;;;;;;-141.97;45.77;47749.72;4932171;29;20724;-83
2023/01/03 11:12:34;;;;;;;55.27;31.20;;;;;;;-141.97;45.86;47743.97;4951468;29;20184;-82
2023/01/03 11:15:04;;;;;;;51.37;29.63;;;;;;;-141.97;45.23;47709.38;4895349;29;20205;-82
2023/01/03 11:17:29;;;;;;;58.93;32.07;;;;;;;-141.97;45.55;47707.44;4895297;29;20201;-82
2023/01/03 11:19:56;;;;;;;53.03;29.67;;;;;;;-141.97;45.21;47730.50;4894806;29;20273;-83
2023/01/03 11:22:43;;;;;;;45.17;26.13;;;;;;;-141.97;44.33;47734.34;4907549;29;20193;-82
2023/01/03 11:25:46;;;;;;;43.47;24.97;;;;;;;-141.97;44.29;47718.97;4931979;29;20685;-83
2023/01/03 11:28:30;;;;;;;43.20;26.20;;;;;;;-141.97;44.26;47717.06;4932199;29;20252;-82
2023/01/03 11:31:12;;;;;;;49.73;27.60;;;;;;;-141.97;44.57;47717.06;4932042;29;20197;-84
2023/01/03 11:34:03;;;;;;;44.00;26.93;;;;;;;-141.97;44.14;47728.59;4931803;29;20575;-83
2023/01/03 11:36:44;;;;;;;40.93;26.10;;;;;;;-141.97;44.71;47734.34;4932064;29;20180;-83
2023/01/03 11:39:20;;;;;;;42.43;25.73;;;;;;;-141.97;44.34;47865.06;4931714;29;20221;-83
2023/01/03 11:41:52;;;;;;;43.87;26.30;;;;;;;-141.97;44.19;47730.50;4931733;29;20282;-83
2023/01/03 11:44:55;;;;;;;41.93;24.67;;;;;;;-141.97;44.00;47690.16;4931799;29;20260;-83
2023/01/03 11:47:29;;;;;;;44.20;26.73;;;;;;;-141.97;44.37;47728.59;4931708;29;20268;-83
2023/01/03 11:50:23;;;;;;;41.43;25.50;;;;;;;-141.97;44.22;47724.75;4933369;29;20281;-84
2023/01/03 11:53:15;;;;;;;41.03;25.27;;;;;;;-141.97;44.65;47730.50;5009361;28;20571;-82
2023/01/03 11:56:01;;;;;;;46.83;26.30;;;;;;;-141.97;44.43;47724.75;5016898;28;20272;-83
2023/01/03 11:58:47;;;;;;;42.60;25.77;;;;;;;-141.97;44.50;47742.03;5014978;28;20267;-83
2023/01/03 12:01:28;;;;;;;43.17;26.23;;;;;;;-141.97;44.64;47715.13;5013679;28;20555;-83
2023/01/03 12:04:37;;;;;;;40.97;25.40;;;;;;;-141.97;44.39;47711.28;5014904;28;20163;-83